Lachine, MI (49753)

11:32 PM EDT on August 29, 2016 (GMT -0400)
MesoWest | | Change Station

Elev 750 ft 45.07 °N, 83.72 °W | Updated 42 minutes ago

Clear
Clear
68 °F
Feels Like 68 °F
N
4
Wind Variable Wind from South
Gusts 8.0 mph

Today
High -- | Low -- °F
--% Chance of Precip.
Yesterday
High -- | Low -- °F
Precip. -- in
Pressure 30.18 in
Visibility 10.0 miles
Clouds Clear
Dew Point 61 °F
Humidity 78%
Rainfall in
Snow Depth Not available.
6:53 AM 8:16 PM
Waning Crescent, 5% visible
METAR KAPN 300254Z AUTO 00000KT 10SM CLR 17/15 A3018 RMK AO2 SLP218 T01720150 58006
Pressure 30.18 in
Visibility 10.0 miles
Clouds Clear
Dew Point 61 °F
Humidity 78%
Rainfall in
Snow Depth Not available.
6:53 AM 8:16 PM
Waning Crescent, 5% visible
METAR KAPN 300254Z AUTO 00000KT 10SM CLR 17/15 A3018 RMK AO2 SLP218 T01720150 58006

10-Day Weather Forecast

Almanac

Astronomy

Aug. 29, 2016 Rise Set
Actual Time
Civil Twilight
Nautical Twilight
Astronomical Twilight
Moon
Length of Visible Light
Length of Day
Tomorrow will be .
, % of the Moon is Illuminated

Today's Extremes

State Highs State Lows

Community

WunderPhotos

Upload Photos

1,935,782 photos uploaded!

WunderBlog® & News

Nearby

Air Quality

  Air Quality AQ Index Pollutant
Not available.

Snow Depth

Station Depth Elevation

Earthquake Activity

City Distance Mag. Time & Date
Minimum magnitude displayed is 2.5.

Coastal Water Temperatures

Place Temperature

Stations

Nearby Weather Stations

Station Location Temp. Windchill Dew Point Humidity Wind Precip. Elev Updated Type
                   

Watches & Warnings

There are currently no watches in effect.